Terminal Aerodrome Forecast
Issued by NWS New Orleans/Baton Rouge, LA

Home | Current Version | Previous Version | Text Only | Print | Product List | Glossary On
Versions: 1 2 3 4 5 6 7 8 9 10 11 12 13 14 15 16 17
000
FTUS44 KLIX 291721
TAFBTR
TAF
KBTR 291721Z 2918/3018 13005KT P6SM VCTS SCT035CB
     FM300200 15007KT P6SM BKN200
     FM300600 VRB03KT P6SM BKN250
     FM301400 VRB04KT P6SM SCT020=

USA.gov is the U.S. government's official web portal to all federal, state and local government web resources and services.